首页
METAR-TAF:

METAR-TAF

机场 :

哈尔滨太平国际机场

哈尔滨, 中华人民共和国

纬度: 45-45N, 经度: 126-46E, 海拔: 143米

当前天气观测

该预报发布于51分钟前的00:00 UTC
风速2节,风向东转东北
温度 -21°C
湿度 84%
气压 1034 hPa
能見度: 3500
部分雾

METAR: ZYHB 110000Z 06001MPS 3500 PRFG NSC M21/M23 Q1034 NOSIG

时间: 08:51 (00:51 UTC)

预报

该预报发布于5小时和40分钟前的19:11 UTC
预报有效从11日的 00点(UTC)到 11日的 24点(UTC)
风速6节,风向西
能見度: 4000

TAF: ZYHB 101911Z 1100/1124 27003MPS 4000 FU NSC TXM09/06Z TNM21/22Z

超过4000个机场的气象观测和天气预报(METAR&TAF报告)。

可查询的气象台以黄色和红色小点在地图上表示。

将鼠标移到小点上方,可查看气象台名称。

然后点击查看天气观测和预报。

如需切换地图:点击带黑十字的绿色按钮放大地图;点击带横线的绿色按钮缩小地图;或者点击绿色箭头查看邻近地区的地图。


METAR-TAF: